Terminal Aerodrome Forecast
Issued by NWS

Current Version | Previous Version | Graphics & Text | Print | Product List | Glossary On
Versions: 1 2 3 4 5 6 7 8 9 10 11 12 13 14 15 16 17 18 19 20 21 22
958
FTUS41 KRLX 221120
TAFCKB
TAF
KCKB 221120Z 2212/2312 00000KT P6SM OVC035
     FM221400 26006KT P6SM BKN030
     FM221700 26007KT P6SM BKN050
     FM230000 00000KT P6SM FEW130=

USA.gov is the U.S. government's official web portal to all federal, state and local government web resources and services.